sensor_id;sensor_type;location;lat;lon;timestamp;temperature;humidity
2226;DHT22;1119;48.288;8.726;2023-08-24T00:00:25;24.00;82.40
2226;DHT22;1119;48.288;8.726;2023-08-24T00:02:52;23.90;81.80
2226;DHT22;1119;48.288;8.726;2023-08-24T00:05:20;23.90;82.80
2226;DHT22;1119;48.288;8.726;2023-08-24T00:07:47;23.90;82.80
2226;DHT22;1119;48.288;8.726;2023-08-24T00:10:17;23.90;82.80
2226;DHT22;1119;48.288;8.726;2023-08-24T00:12:44;23.90;82.60
2226;DHT22;1119;48.288;8.726;2023-08-24T00:15:11;23.90;82.30
2226;DHT22;1119;48.288;8.726;2023-08-24T00:17:39;23.90;82.10
2226;DHT22;1119;48.288;8.726;2023-08-24T00:20:07;23.80;82.50
2226;DHT22;1119;48.288;8.726;2023-08-24T00:22:37;23.70;82.60
2226;DHT22;1119;48.288;8.726;2023-08-24T00:25:06;23.70;83.20
2226;DHT22;1119;48.288;8.726;2023-08-24T00:27:35;23.60;83.40
2226;DHT22;1119;48.288;8.726;2023-08-24T00:30:04;23.60;83.70
2226;DHT22;1119;48.288;8.726;2023-08-24T00:32:34;23.70;83.50
2226;DHT22;1119;48.288;8.726;2023-08-24T00:35:02;23.70;83.30
2226;DHT22;1119;48.288;8.726;2023-08-24T00:37:32;23.70;83.50
2226;DHT22;1119;48.288;8.726;2023-08-24T00:40:00;23.70;82.60
2226;DHT22;1119;48.288;8.726;2023-08-24T00:42:27;23.70;82.80
2226;DHT22;1119;48.288;8.726;2023-08-24T00:44:57;23.60;83.50
2226;DHT22;1119;48.288;8.726;2023-08-24T00:47:25;23.60;83.50
2226;DHT22;1119;48.288;8.726;2023-08-24T00:49:53;23.60;82.30
2226;DHT22;1119;48.288;8.726;2023-08-24T00:52:20;23.50;82.50
2226;DHT22;1119;48.288;8.726;2023-08-24T00:54:48;23.40;83.20
2226;DHT22;1119;48.288;8.726;2023-08-24T00:57:15;23.30;83.50
2226;DHT22;1119;48.288;8.726;2023-08-24T00:59:43;23.20;85.10
2226;DHT22;1119;48.288;8.726;2023-08-24T01:02:12;23.20;84.70
2226;DHT22;1119;48.288;8.726;2023-08-24T01:04:41;23.20;85.60
2226;DHT22;1119;48.288;8.726;2023-08-24T01:07:08;23.20;85.00
2226;DHT22;1119;48.288;8.726;2023-08-24T01:09:36;23.20;85.30
2226;DHT22;1119;48.288;8.726;2023-08-24T01:12:08;23.10;85.60
2226;DHT22;1119;48.288;8.726;2023-08-24T01:14:47;23.10;86.10
2226;DHT22;1119;48.288;8.726;2023-08-24T01:17:24;23.20;86.20
2226;DHT22;1119;48.288;8.726;2023-08-24T01:19:55;23.30;85.80
2226;DHT22;1119;48.288;8.726;2023-08-24T01:22:32;23.30;85.40
2226;DHT22;1119;48.288;8.726;2023-08-24T01:25:06;23.30;85.40
2226;DHT22;1119;48.288;8.726;2023-08-24T01:27:48;23.30;85.20
2226;DHT22;1119;48.288;8.726;2023-08-24T01:30:17;23.40;85.00
2226;DHT22;1119;48.288;8.726;2023-08-24T01:32:45;23.40;84.70
2226;DHT22;1119;48.288;8.726;2023-08-24T01:35:13;23.40;84.60
2226;DHT22;1119;48.288;8.726;2023-08-24T01:37:40;23.30;84.60
2226;DHT22;1119;48.288;8.726;2023-08-24T01:40:15;23.30;84.70
2226;DHT22;1119;48.288;8.726;2023-08-24T01:43:07;23.30;84.70
2226;DHT22;1119;48.288;8.726;2023-08-24T01:45:34;23.20;84.90
2226;DHT22;1119;48.288;8.726;2023-08-24T01:48:03;23.20;84.90
2226;DHT22;1119;48.288;8.726;2023-08-24T01:50:31;23.20;84.60
2226;DHT22;1119;48.288;8.726;2023-08-24T01:52:59;23.20;84.90
2226;DHT22;1119;48.288;8.726;2023-08-24T01:55:27;23.20;84.70
2226;DHT22;1119;48.288;8.726;2023-08-24T01:57:56;23.20;84.40
2226;DHT22;1119;48.288;8.726;2023-08-24T02:00:24;23.20;84.10
2226;DHT22;1119;48.288;8.726;2023-08-24T02:02:51;23.10;84.80
2226;DHT22;1119;48.288;8.726;2023-08-24T02:05:19;23.10;85.50
2226;DHT22;1119;48.288;8.726;2023-08-24T02:07:51;23.00;85.80
2226;DHT22;1119;48.288;8.726;2023-08-24T02:10:18;22.90;86.10
2226;DHT22;1119;48.288;8.726;2023-08-24T02:12:46;22.90;85.80
2226;DHT22;1119;48.288;8.726;2023-08-24T02:15:14;22.90;86.10
2226;DHT22;1119;48.288;8.726;2023-08-24T02:17:42;22.80;86.20
2226;DHT22;1119;48.288;8.726;2023-08-24T02:20:11;22.80;86.60
2226;DHT22;1119;48.288;8.726;2023-08-24T02:22:38;22.70;87.50
2226;DHT22;1119;48.288;8.726;2023-08-24T02:25:06;22.60;88.50
2226;DHT22;1119;48.288;8.726;2023-08-24T02:27:35;22.50;88.30
2226;DHT22;1119;48.288;8.726;2023-08-24T02:30:03;22.40;89.10
2226;DHT22;1119;48.288;8.726;2023-08-24T02:32:32;22.40;89.90
2226;DHT22;1119;48.288;8.726;2023-08-24T02:34:59;22.30;90.10
2226;DHT22;1119;48.288;8.726;2023-08-24T02:37:30;22.30;90.30
2226;DHT22;1119;48.288;8.726;2023-08-24T02:39:57;22.30;90.50
2226;DHT22;1119;48.288;8.726;2023-08-24T02:42:24;22.40;90.60
2226;DHT22;1119;48.288;8.726;2023-08-24T02:44:52;22.40;90.60
2226;DHT22;1119;48.288;8.726;2023-08-24T02:47:20;22.40;90.60
2226;DHT22;1119;48.288;8.726;2023-08-24T02:49:49;22.50;90.50
2226;DHT22;1119;48.288;8.726;2023-08-24T02:52:17;22.50;90.40
2226;DHT22;1119;48.288;8.726;2023-08-24T02:54:44;22.60;90.10
2226;DHT22;1119;48.288;8.726;2023-08-24T02:57:11;22.70;89.60
2226;DHT22;1119;48.288;8.726;2023-08-24T02:59:39;22.70;88.80
2226;DHT22;1119;48.288;8.726;2023-08-24T03:02:09;22.70;89.20
2226;DHT22;1119;48.288;8.726;2023-08-24T03:04:36;22.70;89.30
2226;DHT22;1119;48.288;8.726;2023-08-24T03:07:05;22.80;89.00
2226;DHT22;1119;48.288;8.726;2023-08-24T03:09:34;22.90;88.20
2226;DHT22;1119;48.288;8.726;2023-08-24T03:12:02;22.80;87.80
2226;DHT22;1119;48.288;8.726;2023-08-24T03:14:29;22.80;87.90
2226;DHT22;1119;48.288;8.726;2023-08-24T03:16:57;22.70;87.80
2226;DHT22;1119;48.288;8.726;2023-08-24T03:19:24;22.60;89.40
2226;DHT22;1119;48.288;8.726;2023-08-24T03:21:52;22.50;90.10
2226;DHT22;1119;48.288;8.726;2023-08-24T03:24:21;22.40;90.40
2226;DHT22;1119;48.288;8.726;2023-08-24T03:26:48;22.30;90.70
2226;DHT22;1119;48.288;8.726;2023-08-24T03:29:16;22.20;90.80
2226;DHT22;1119;48.288;8.726;2023-08-24T03:31:43;22.00;90.80
2226;DHT22;1119;48.288;8.726;2023-08-24T03:34:11;21.80;91.40
2226;DHT22;1119;48.288;8.726;2023-08-24T03:36:38;21.70;92.20
2226;DHT22;1119;48.288;8.726;2023-08-24T03:39:06;21.50;92.60
2226;DHT22;1119;48.288;8.726;2023-08-24T03:41:35;21.40;92.90
2226;DHT22;1119;48.288;8.726;2023-08-24T03:44:03;21.30;93.30
2226;DHT22;1119;48.288;8.726;2023-08-24T03:46:30;21.20;93.70
2226;DHT22;1119;48.288;8.726;2023-08-24T03:48:57;21.20;94.10
2226;DHT22;1119;48.288;8.726;2023-08-24T03:51:25;21.10;94.70
2226;DHT22;1119;48.288;8.726;2023-08-24T03:53:53;21.10;95.30
2226;DHT22;1119;48.288;8.726;2023-08-24T03:56:20;21.10;95.80
2226;DHT22;1119;48.288;8.726;2023-08-24T03:58:49;21.10;95.40
2226;DHT22;1119;48.288;8.726;2023-08-24T04:01:17;21.10;95.50
2226;DHT22;1119;48.288;8.726;2023-08-24T04:03:44;21.10;95.70
2226;DHT22;1119;48.288;8.726;2023-08-24T04:06:11;21.10;95.60
2226;DHT22;1119;48.288;8.726;2023-08-24T04:08:39;21.10;95.60
2226;DHT22;1119;48.288;8.726;2023-08-24T04:11:06;21.30;95.70
2226;DHT22;1119;48.288;8.726;2023-08-24T04:13:34;21.40;95.40
2226;DHT22;1119;48.288;8.726;2023-08-24T04:16:03;21.50;95.00
2226;DHT22;1119;48.288;8.726;2023-08-24T04:18:30;21.60;95.00
2226;DHT22;1119;48.288;8.726;2023-08-24T04:20:58;21.70;94.30
2226;DHT22;1119;48.288;8.726;2023-08-24T04:23:25;21.80;94.10
2226;DHT22;1119;48.288;8.726;2023-08-24T04:25:53;21.90;93.80
2226;DHT22;1119;48.288;8.726;2023-08-24T04:28:21;21.90;93.40
2226;DHT22;1119;48.288;8.726;2023-08-24T04:30:50;21.90;93.00
2226;DHT22;1119;48.288;8.726;2023-08-24T04:33:19;21.80;92.80
2226;DHT22;1119;48.288;8.726;2023-08-24T04:35:47;21.70;92.80
2226;DHT22;1119;48.288;8.726;2023-08-24T04:38:15;21.50;93.20
2226;DHT22;1119;48.288;8.726;2023-08-24T04:40:48;21.60;93.40
2226;DHT22;1119;48.288;8.726;2023-08-24T04:43:16;21.40;93.60
2226;DHT22;1119;48.288;8.726;2023-08-24T04:45:45;21.40;93.90
2226;DHT22;1119;48.288;8.726;2023-08-24T04:48:13;21.30;94.00
2226;DHT22;1119;48.288;8.726;2023-08-24T04:50:43;21.40;94.20
2226;DHT22;1119;48.288;8.726;2023-08-24T04:53:12;21.40;94.30
2226;DHT22;1119;48.288;8.726;2023-08-24T04:55:41;21.40;94.70
2226;DHT22;1119;48.288;8.726;2023-08-24T04:58:09;21.40;94.60
2226;DHT22;1119;48.288;8.726;2023-08-24T05:00:37;21.50;94.40
2226;DHT22;1119;48.288;8.726;2023-08-24T05:03:05;21.70;94.00
2226;DHT22;1119;48.288;8.726;2023-08-24T05:05:34;21.90;93.70
2226;DHT22;1119;48.288;8.726;2023-08-24T05:08:05;22.10;93.30
2226;DHT22;1119;48.288;8.726;2023-08-24T05:10:35;22.10;92.90
2226;DHT22;1119;48.288;8.726;2023-08-24T05:13:03;22.20;92.80
2226;DHT22;1119;48.288;8.726;2023-08-24T05:15:31;22.20;92.60
2226;DHT22;1119;48.288;8.726;2023-08-24T05:17:58;22.30;93.10
2226;DHT22;1119;48.288;8.726;2023-08-24T05:20:26;22.30;93.20
2226;DHT22;1119;48.288;8.726;2023-08-24T05:22:54;22.30;93.00
2226;DHT22;1119;48.288;8.726;2023-08-24T05:25:23;22.30;93.00
2226;DHT22;1119;48.288;8.726;2023-08-24T05:27:50;22.40;93.50
2226;DHT22;1119;48.288;8.726;2023-08-24T05:30:17;22.40;92.80
2226;DHT22;1119;48.288;8.726;2023-08-24T05:32:45;22.40;93.20
2226;DHT22;1119;48.288;8.726;2023-08-24T05:35:12;22.40;93.20
2226;DHT22;1119;48.288;8.726;2023-08-24T05:37:39;22.40;93.20
2226;DHT22;1119;48.288;8.726;2023-08-24T05:40:07;22.50;93.00
2226;DHT22;1119;48.288;8.726;2023-08-24T05:42:36;22.70;93.00
2226;DHT22;1119;48.288;8.726;2023-08-24T05:45:04;22.80;92.20
2226;DHT22;1119;48.288;8.726;2023-08-24T05:47:32;22.90;92.50
2226;DHT22;1119;48.288;8.726;2023-08-24T05:49:59;23.00;92.20
2226;DHT22;1119;48.288;8.726;2023-08-24T05:52:26;23.10;92.20
2226;DHT22;1119;48.288;8.726;2023-08-24T05:54:54;23.20;92.40
2226;DHT22;1119;48.288;8.726;2023-08-24T05:57:21;23.40;92.10
2226;DHT22;1119;48.288;8.726;2023-08-24T05:59:50;23.50;92.30
2226;DHT22;1119;48.288;8.726;2023-08-24T06:02:17;23.60;92.50
2226;DHT22;1119;48.288;8.726;2023-08-24T06:04:44;23.60;92.50
2226;DHT22;1119;48.288;8.726;2023-08-24T06:07:12;23.60;92.60
2226;DHT22;1119;48.288;8.726;2023-08-24T06:09:39;23.50;92.40
2226;DHT22;1119;48.288;8.726;2023-08-24T06:12:07;23.30;92.50
2226;DHT22;1119;48.288;8.726;2023-08-24T06:14:34;23.30;93.40
2226;DHT22;1119;48.288;8.726;2023-08-24T06:17:03;23.30;93.40
2226;DHT22;1119;48.288;8.726;2023-08-24T06:19:31;23.30;93.50
2226;DHT22;1119;48.288;8.726;2023-08-24T06:21:58;23.20;93.60
2226;DHT22;1119;48.288;8.726;2023-08-24T06:24:25;23.20;95.90
2226;DHT22;1119;48.288;8.726;2023-08-24T06:26:52;23.10;96.10
2226;DHT22;1119;48.288;8.726;2023-08-24T06:29:20;22.90;96.40
2226;DHT22;1119;48.288;8.726;2023-08-24T06:31:47;23.00;97.00
2226;DHT22;1119;48.288;8.726;2023-08-24T06:34:16;23.00;97.10
2226;DHT22;1119;48.288;8.726;2023-08-24T06:36:43;23.00;97.30
2226;DHT22;1119;48.288;8.726;2023-08-24T06:39:10;23.30;96.70
2226;DHT22;1119;48.288;8.726;2023-08-24T06:41:38;23.60;97.40
2226;DHT22;1119;48.288;8.726;2023-08-24T06:44:09;23.80;97.00
2226;DHT22;1119;48.288;8.726;2023-08-24T06:46:36;23.90;95.60
2226;DHT22;1119;48.288;8.726;2023-08-24T06:49:03;23.90;94.50
2226;DHT22;1119;48.288;8.726;2023-08-24T06:51:32;23.80;94.20
2226;DHT22;1119;48.288;8.726;2023-08-24T06:54:00;23.80;94.40
2226;DHT22;1119;48.288;8.726;2023-08-24T06:56:28;23.80;94.40
2226;DHT22;1119;48.288;8.726;2023-08-24T06:58:55;23.90;94.80
2226;DHT22;1119;48.288;8.726;2023-08-24T07:01:22;24.00;95.00
2226;DHT22;1119;48.288;8.726;2023-08-24T07:03:51;24.00;94.60
2226;DHT22;1119;48.288;8.726;2023-08-24T07:06:19;24.00;94.40
2226;DHT22;1119;48.288;8.726;2023-08-24T07:08:47;23.90;94.60
2226;DHT22;1119;48.288;8.726;2023-08-24T07:11:15;23.70;94.90
2226;DHT22;1119;48.288;8.726;2023-08-24T07:13:43;23.60;96.10
2226;DHT22;1119;48.288;8.726;2023-08-24T07:16:11;23.50;96.40
2226;DHT22;1119;48.288;8.726;2023-08-24T07:18:39;23.50;97.00
2226;DHT22;1119;48.288;8.726;2023-08-24T07:21:06;23.80;96.30
2226;DHT22;1119;48.288;8.726;2023-08-24T07:23:34;24.50;95.60
2226;DHT22;1119;48.288;8.726;2023-08-24T07:26:02;25.60;93.90
2226;DHT22;1119;48.288;8.726;2023-08-24T07:28:31;26.30;91.90
2226;DHT22;1119;48.288;8.726;2023-08-24T07:30:58;26.60;90.60
2226;DHT22;1119;48.288;8.726;2023-08-24T07:33:26;27.10;90.20
2226;DHT22;1119;48.288;8.726;2023-08-24T07:35:54;27.80;87.10
2226;DHT22;1119;48.288;8.726;2023-08-24T07:38:22;28.70;83.20
2226;DHT22;1119;48.288;8.726;2023-08-24T07:40:49;29.20;80.10
2226;DHT22;1119;48.288;8.726;2023-08-24T07:43:18;29.70;76.60
2226;DHT22;1119;48.288;8.726;2023-08-24T07:45:46;30.30;75.30
2226;DHT22;1119;48.288;8.726;2023-08-24T07:48:13;30.70;73.20
2226;DHT22;1119;48.288;8.726;2023-08-24T07:50:41;31.10;71.00
2226;DHT22;1119;48.288;8.726;2023-08-24T07:53:08;30.90;71.00
2226;DHT22;1119;48.288;8.726;2023-08-24T07:55:35;30.50;70.10
2226;DHT22;1119;48.288;8.726;2023-08-24T07:58:03;30.40;70.30
2226;DHT22;1119;48.288;8.726;2023-08-24T08:00:32;30.40;70.60
2226;DHT22;1119;48.288;8.726;2023-08-24T08:02:59;30.60;69.80
2226;DHT22;1119;48.288;8.726;2023-08-24T08:05:26;30.70;69.10
2226;DHT22;1119;48.288;8.726;2023-08-24T08:07:54;30.60;69.30
2226;DHT22;1119;48.288;8.726;2023-08-24T08:10:21;30.60;69.50
2226;DHT22;1119;48.288;8.726;2023-08-24T08:12:50;30.70;68.50
2226;DHT22;1119;48.288;8.726;2023-08-24T08:15:17;30.60;69.50
2226;DHT22;1119;48.288;8.726;2023-08-24T08:17:46;30.40;68.00
2226;DHT22;1119;48.288;8.726;2023-08-24T08:20:15;30.20;68.40
2226;DHT22;1119;48.288;8.726;2023-08-24T08:22:44;30.10;68.30
2226;DHT22;1119;48.288;8.726;2023-08-24T08:25:12;30.10;68.80
2226;DHT22;1119;48.288;8.726;2023-08-24T08:27:40;30.10;68.60
2226;DHT22;1119;48.288;8.726;2023-08-24T08:30:07;29.90;69.60
2226;DHT22;1119;48.288;8.726;2023-08-24T08:32:35;29.80;69.30
2226;DHT22;1119;48.288;8.726;2023-08-24T08:35:05;29.50;70.80
2226;DHT22;1119;48.288;8.726;2023-08-24T08:37:33;29.50;71.30
2226;DHT22;1119;48.288;8.726;2023-08-24T08:40:02;29.60;71.90
2226;DHT22;1119;48.288;8.726;2023-08-24T08:42:32;29.70;69.30
2226;DHT22;1119;48.288;8.726;2023-08-24T08:45:00;30.00;67.50
2226;DHT22;1119;48.288;8.726;2023-08-24T08:47:29;30.20;68.00
2226;DHT22;1119;48.288;8.726;2023-08-24T08:49:57;30.40;67.60
2226;DHT22;1119;48.288;8.726;2023-08-24T08:52:26;30.40;65.30
2226;DHT22;1119;48.288;8.726;2023-08-24T08:54:54;30.50;65.50
2226;DHT22;1119;48.288;8.726;2023-08-24T08:57:23;30.50;65.90
2226;DHT22;1119;48.288;8.726;2023-08-24T08:59:52;30.50;65.90
2226;DHT22;1119;48.288;8.726;2023-08-24T09:02:20;29.80;65.10
2226;DHT22;1119;48.288;8.726;2023-08-24T09:04:50;29.60;67.10
2226;DHT22;1119;48.288;8.726;2023-08-24T09:07:18;29.70;68.70
2226;DHT22;1119;48.288;8.726;2023-08-24T09:09:47;29.60;68.00
2226;DHT22;1119;48.288;8.726;2023-08-24T09:12:16;29.60;67.40
2226;DHT22;1119;48.288;8.726;2023-08-24T09:14:43;29.30;68.40
2226;DHT22;1119;48.288;8.726;2023-08-24T09:17:11;29.30;68.50
2226;DHT22;1119;48.288;8.726;2023-08-24T09:19:49;29.30;69.70
2226;DHT22;1119;48.288;8.726;2023-08-24T09:22:18;29.20;70.60
2226;DHT22;1119;48.288;8.726;2023-08-24T09:24:50;29.20;71.50
2226;DHT22;1119;48.288;8.726;2023-08-24T09:27:18;29.10;71.50
2226;DHT22;1119;48.288;8.726;2023-08-24T09:29:50;29.00;73.00
2226;DHT22;1119;48.288;8.726;2023-08-24T09:32:23;29.10;72.70
2226;DHT22;1119;48.288;8.726;2023-08-24T09:34:53;29.10;72.30
2226;DHT22;1119;48.288;8.726;2023-08-24T09:37:21;28.90;71.80
2226;DHT22;1119;48.288;8.726;2023-08-24T09:39:50;29.00;74.30
2226;DHT22;1119;48.288;8.726;2023-08-24T09:42:29;29.10;73.10
2226;DHT22;1119;48.288;8.726;2023-08-24T09:45:02;29.30;72.10
2226;DHT22;1119;48.288;8.726;2023-08-24T09:47:31;29.60;71.40
2226;DHT22;1119;48.288;8.726;2023-08-24T09:49:59;29.80;70.40
2226;DHT22;1119;48.288;8.726;2023-08-24T09:52:31;29.80;70.10
2226;DHT22;1119;48.288;8.726;2023-08-24T09:55:03;29.90;71.00
2226;DHT22;1119;48.288;8.726;2023-08-24T09:57:36;29.90;71.10
2226;DHT22;1119;48.288;8.726;2023-08-24T10:00:07;30.00;69.70
2226;DHT22;1119;48.288;8.726;2023-08-24T10:02:44;29.80;69.60
2226;DHT22;1119;48.288;8.726;2023-08-24T10:05:17;29.60;70.60
2226;DHT22;1119;48.288;8.726;2023-08-24T10:07:52;29.40;70.80
2226;DHT22;1119;48.288;8.726;2023-08-24T10:10:23;29.50;71.10
2226;DHT22;1119;48.288;8.726;2023-08-24T10:12:57;29.70;71.00
2226;DHT22;1119;48.288;8.726;2023-08-24T10:15:27;30.00;71.50
2226;DHT22;1119;48.288;8.726;2023-08-24T10:17:55;30.30;71.70
2226;DHT22;1119;48.288;8.726;2023-08-24T10:20:23;30.50;72.10
2226;DHT22;1119;48.288;8.726;2023-08-24T10:22:52;30.70;69.90
2226;DHT22;1119;48.288;8.726;2023-08-24T10:25:21;30.90;69.70
2226;DHT22;1119;48.288;8.726;2023-08-24T10:27:51;31.10;70.40
2226;DHT22;1119;48.288;8.726;2023-08-24T10:30:20;31.20;69.60
2226;DHT22;1119;48.288;8.726;2023-08-24T10:32:48;31.30;68.80
2226;DHT22;1119;48.288;8.726;2023-08-24T10:35:19;31.30;68.40
2226;DHT22;1119;48.288;8.726;2023-08-24T10:37:52;31.20;67.70
2226;DHT22;1119;48.288;8.726;2023-08-24T10:40:33;31.30;66.70
2226;DHT22;1119;48.288;8.726;2023-08-24T10:43:04;31.50;67.50
2226;DHT22;1119;48.288;8.726;2023-08-24T10:45:53;31.80;68.20
2226;DHT22;1119;48.288;8.726;2023-08-24T10:48:23;31.90;67.80
2226;DHT22;1119;48.288;8.726;2023-08-24T10:51:19;32.00;65.90
2226;DHT22;1119;48.288;8.726;2023-08-24T10:53:52;31.90;65.40
2226;DHT22;1119;48.288;8.726;2023-08-24T10:56:24;31.80;66.00
2226;DHT22;1119;48.288;8.726;2023-08-24T10:59:10;31.90;65.70
2226;DHT22;1119;48.288;8.726;2023-08-24T11:01:39;31.90;67.80
2226;DHT22;1119;48.288;8.726;2023-08-24T11:04:07;31.80;67.40
2226;DHT22;1119;48.288;8.726;2023-08-24T11:06:50;31.70;67.20
2226;DHT22;1119;48.288;8.726;2023-08-24T11:09:18;31.80;66.80
2226;DHT22;1119;48.288;8.726;2023-08-24T11:11:57;32.00;67.00
2226;DHT22;1119;48.288;8.726;2023-08-24T11:14:26;32.10;65.20
2226;DHT22;1119;48.288;8.726;2023-08-24T11:16:57;32.30;64.80
2226;DHT22;1119;48.288;8.726;2023-08-24T11:19:26;32.30;64.90
2226;DHT22;1119;48.288;8.726;2023-08-24T11:21:53;32.20;64.80
2226;DHT22;1119;48.288;8.726;2023-08-24T11:24:22;32.10;64.80
2226;DHT22;1119;48.288;8.726;2023-08-24T11:26:49;31.90;65.60
2226;DHT22;1119;48.288;8.726;2023-08-24T11:29:19;31.70;65.70
2226;DHT22;1119;48.288;8.726;2023-08-24T11:31:47;31.50;66.50
2226;DHT22;1119;48.288;8.726;2023-08-24T11:34:15;31.40;67.40
2226;DHT22;1119;48.288;8.726;2023-08-24T11:36:43;31.30;67.90
2226;DHT22;1119;48.288;8.726;2023-08-24T11:39:17;31.30;67.80
2226;DHT22;1119;48.288;8.726;2023-08-24T11:41:55;31.30;67.50
2226;DHT22;1119;48.288;8.726;2023-08-24T11:44:25;31.50;67.00
2226;DHT22;1119;48.288;8.726;2023-08-24T11:46:52;31.50;66.30
2226;DHT22;1119;48.288;8.726;2023-08-24T11:49:20;31.50;66.60
2226;DHT22;1119;48.288;8.726;2023-08-24T11:51:47;31.70;67.10
2226;DHT22;1119;48.288;8.726;2023-08-24T11:54:16;32.00;66.10
2226;DHT22;1119;48.288;8.726;2023-08-24T11:56:44;32.20;66.00
2226;DHT22;1119;48.288;8.726;2023-08-24T11:59:13;32.30;66.50
2226;DHT22;1119;48.288;8.726;2023-08-24T12:01:43;32.20;67.20
2226;DHT22;1119;48.288;8.726;2023-08-24T12:04:10;32.10;66.50
2226;DHT22;1119;48.288;8.726;2023-08-24T12:06:38;32.00;65.30
2226;DHT22;1119;48.288;8.726;2023-08-24T12:09:06;32.10;66.00
2226;DHT22;1119;48.288;8.726;2023-08-24T12:11:36;32.20;67.40
2226;DHT22;1119;48.288;8.726;2023-08-24T12:14:05;32.30;64.90
2226;DHT22;1119;48.288;8.726;2023-08-24T12:16:35;32.40;65.60
2226;DHT22;1119;48.288;8.726;2023-08-24T12:19:07;32.50;65.30
2226;DHT22;1119;48.288;8.726;2023-08-24T12:21:36;32.50;67.40
2226;DHT22;1119;48.288;8.726;2023-08-24T12:24:04;32.40;64.70
2226;DHT22;1119;48.288;8.726;2023-08-24T12:26:33;32.60;63.40
2226;DHT22;1119;48.288;8.726;2023-08-24T12:29:03;32.90;64.40
2226;DHT22;1119;48.288;8.726;2023-08-24T12:31:32;32.90;62.10
2226;DHT22;1119;48.288;8.726;2023-08-24T12:34:01;32.90;61.30
2226;DHT22;1119;48.288;8.726;2023-08-24T12:36:32;33.00;61.70
2226;DHT22;1119;48.288;8.726;2023-08-24T12:38:59;33.10;62.10
2226;DHT22;1119;48.288;8.726;2023-08-24T12:41:27;33.10;62.50
2226;DHT22;1119;48.288;8.726;2023-08-24T12:43:54;33.20;61.80
2226;DHT22;1119;48.288;8.726;2023-08-24T12:46:22;33.20;61.40
2226;DHT22;1119;48.288;8.726;2023-08-24T12:48:50;33.00;62.30
2226;DHT22;1119;48.288;8.726;2023-08-24T12:51:17;33.00;63.80
2226;DHT22;1119;48.288;8.726;2023-08-24T12:53:46;32.90;64.10
2226;DHT22;1119;48.288;8.726;2023-08-24T12:56:13;32.90;63.70
2226;DHT22;1119;48.288;8.726;2023-08-24T12:58:41;32.90;62.60
2226;DHT22;1119;48.288;8.726;2023-08-24T13:01:08;32.90;63.50
2226;DHT22;1119;48.288;8.726;2023-08-24T13:03:35;33.00;62.60
2226;DHT22;1119;48.288;8.726;2023-08-24T13:06:05;33.00;62.10
2226;DHT22;1119;48.288;8.726;2023-08-24T13:08:32;33.00;62.10
2226;DHT22;1119;48.288;8.726;2023-08-24T13:11:01;33.20;62.10
2226;DHT22;1119;48.288;8.726;2023-08-24T13:13:28;33.30;61.80
2226;DHT22;1119;48.288;8.726;2023-08-24T13:15:55;33.40;62.20
2226;DHT22;1119;48.288;8.726;2023-08-24T13:18:23;33.40;62.00
2226;DHT22;1119;48.288;8.726;2023-08-24T13:20:50;33.30;62.10
2226;DHT22;1119;48.288;8.726;2023-08-24T13:23:17;33.20;59.80
2226;DHT22;1119;48.288;8.726;2023-08-24T13:25:45;33.10;60.50
2226;DHT22;1119;48.288;8.726;2023-08-24T13:28:13;33.00;62.80
2226;DHT22;1119;48.288;8.726;2023-08-24T13:30:41;33.00;59.70
2226;DHT22;1119;48.288;8.726;2023-08-24T13:33:08;32.80;60.30
2226;DHT22;1119;48.288;8.726;2023-08-24T13:35:38;32.50;58.70
2226;DHT22;1119;48.288;8.726;2023-08-24T13:38:05;32.40;60.00
2226;DHT22;1119;48.288;8.726;2023-08-24T13:40:32;32.60;60.60
2226;DHT22;1119;48.288;8.726;2023-08-24T13:43:00;32.80;59.30
2226;DHT22;1119;48.288;8.726;2023-08-24T13:45:28;33.10;58.30
2226;DHT22;1119;48.288;8.726;2023-08-24T13:47:56;33.40;57.50
2226;DHT22;1119;48.288;8.726;2023-08-24T13:50:24;33.70;57.00
2226;DHT22;1119;48.288;8.726;2023-08-24T13:52:51;33.90;57.10
2226;DHT22;1119;48.288;8.726;2023-08-24T13:55:19;34.00;55.90
2226;DHT22;1119;48.288;8.726;2023-08-24T13:57:46;34.10;55.40
2226;DHT22;1119;48.288;8.726;2023-08-24T14:00:14;34.10;55.50
2226;DHT22;1119;48.288;8.726;2023-08-24T14:02:44;34.30;55.00
2226;DHT22;1119;48.288;8.726;2023-08-24T14:05:13;34.40;55.50
2226;DHT22;1119;48.288;8.726;2023-08-24T14:07:41;34.70;53.10
2226;DHT22;1119;48.288;8.726;2023-08-24T14:10:09;34.70;53.10
2226;DHT22;1119;48.288;8.726;2023-08-24T14:12:38;34.70;53.30
2226;DHT22;1119;48.288;8.726;2023-08-24T14:15:06;34.70;52.10
2226;DHT22;1119;48.288;8.726;2023-08-24T14:17:34;34.70;53.10
2226;DHT22;1119;48.288;8.726;2023-08-24T14:20:03;34.70;53.20
2226;DHT22;1119;48.288;8.726;2023-08-24T14:22:31;34.70;53.40
2226;DHT22;1119;48.288;8.726;2023-08-24T14:24:58;34.90;53.60
2226;DHT22;1119;48.288;8.726;2023-08-24T14:27:26;34.90;54.70
2226;DHT22;1119;48.288;8.726;2023-08-24T14:29:53;35.00;52.80
2226;DHT22;1119;48.288;8.726;2023-08-24T14:32:21;35.00;53.10
2226;DHT22;1119;48.288;8.726;2023-08-24T14:34:49;35.00;53.80
2226;DHT22;1119;48.288;8.726;2023-08-24T14:37:18;35.00;53.50
2226;DHT22;1119;48.288;8.726;2023-08-24T14:39:45;35.00;54.00
2226;DHT22;1119;48.288;8.726;2023-08-24T14:42:12;35.00;53.30
2226;DHT22;1119;48.288;8.726;2023-08-24T14:44:40;35.10;53.50
2226;DHT22;1119;48.288;8.726;2023-08-24T14:47:07;35.10;53.70
2226;DHT22;1119;48.288;8.726;2023-08-24T14:49:34;35.10;54.30
2226;DHT22;1119;48.288;8.726;2023-08-24T14:52:02;35.00;54.10
2226;DHT22;1119;48.288;8.726;2023-08-24T14:54:30;34.90;54.00
2226;DHT22;1119;48.288;8.726;2023-08-24T14:56:58;34.80;55.30
2226;DHT22;1119;48.288;8.726;2023-08-24T14:59:26;34.60;55.10
2226;DHT22;1119;48.288;8.726;2023-08-24T15:01:53;34.60;56.10
2226;DHT22;1119;48.288;8.726;2023-08-24T15:04:26;34.50;56.40
2226;DHT22;1119;48.288;8.726;2023-08-24T15:06:54;34.30;56.10
2226;DHT22;1119;48.288;8.726;2023-08-24T15:09:21;34.30;56.30
2226;DHT22;1119;48.288;8.726;2023-08-24T15:11:50;34.20;55.80
2226;DHT22;1119;48.288;8.726;2023-08-24T15:14:17;34.10;54.40
2226;DHT22;1119;48.288;8.726;2023-08-24T15:16:45;34.10;54.60
2226;DHT22;1119;48.288;8.726;2023-08-24T15:19:12;34.10;55.20
2226;DHT22;1119;48.288;8.726;2023-08-24T15:21:39;34.00;55.00
2226;DHT22;1119;48.288;8.726;2023-08-24T15:24:06;33.90;55.50
2226;DHT22;1119;48.288;8.726;2023-08-24T15:26:34;33.80;55.60
2226;DHT22;1119;48.288;8.726;2023-08-24T15:29:12;33.60;55.90
2226;DHT22;1119;48.288;8.726;2023-08-24T15:31:41;33.30;58.10
2226;DHT22;1119;48.288;8.726;2023-08-24T15:34:08;32.70;60.20
2226;DHT22;1119;48.288;8.726;2023-08-24T15:36:36;32.30;62.60
2226;DHT22;1119;48.288;8.726;2023-08-24T15:39:03;31.90;64.00
2226;DHT22;1119;48.288;8.726;2023-08-24T15:41:31;31.70;65.20
2226;DHT22;1119;48.288;8.726;2023-08-24T15:43:58;31.60;66.60
2226;DHT22;1119;48.288;8.726;2023-08-24T15:46:27;31.40;67.90
2226;DHT22;1119;48.288;8.726;2023-08-24T15:48:54;31.20;69.50
2226;DHT22;1119;48.288;8.726;2023-08-24T15:51:23;31.00;70.90
2226;DHT22;1119;48.288;8.726;2023-08-24T15:53:50;30.80;71.20
2226;DHT22;1119;48.288;8.726;2023-08-24T15:56:18;30.50;70.50
2226;DHT22;1119;48.288;8.726;2023-08-24T15:58:45;30.20;71.30
2226;DHT22;1119;48.288;8.726;2023-08-24T16:01:12;29.90;73.40
2226;DHT22;1119;48.288;8.726;2023-08-24T16:03:41;29.80;75.70
2226;DHT22;1119;48.288;8.726;2023-08-24T16:06:09;29.60;76.20
2226;DHT22;1119;48.288;8.726;2023-08-24T16:08:36;29.50;77.50
2226;DHT22;1119;48.288;8.726;2023-08-24T16:11:04;29.40;79.10